Cranford, NJ

12:53 PM EDT on August 31, 2015 (GMT -0400)
Clark OEM - Municipal Building | | Change Station
CLOSE
Current Station
Personal Weather Station
Location: Clark, NJ
Elevation: 60 ft
Nearby Weather Stations

Elev 60 ft 40.63 °N, 74.31 °W | Updated 11 seconds ago

Partly Cloudy
Partly Cloudy
84.5 °F
Feels Like 89 °F
N
0.0
Wind Variable Wind from SW
Gusts 9.0 mph

Today
High -- | Low -- °F
--% Chance of Precip.
Yesterday
High -- | Low -- °F
Precip. -- in
6:23 AM 7:31 PM
Waning Gibbous, 94% visible
Pressure 30.05 in
Visibility 10.0 miles
Clouds Clear
Heat Index 89 °F
Dew Point 70 °F
Humidity 62%
Rainfall 0.00 in
Snow Depth Not available.
UV 9 out of 12
Pollen 10.60 out of 12
Air Quality Not available.
Flu Activity Not available.
METAR KLDJ 311635Z AUTO 30006KT 10SM CLR 30/18 A3005 RMK AO2 T02990178
Pressure 30.05 in
Visibility 10.0 miles
Clouds Clear
Heat Index 89 °F
Dew Point 70 °F
Humidity 62%
Rainfall 0.00 in
Snow Depth Not available.
UV 9 out of 12
Pollen 10.60 out of 12
Air Quality Not available.
Flu Activity Not available.
METAR KLDJ 311635Z AUTO 30006KT 10SM CLR 30/18 A3005 RMK AO2 T02990178

10-Day Weather Forecast

×

Almanac

Astronomy

Aug. 31, 2015 Rise Set
Actual Time
Civil Twilight
Nautical Twilight
Astronomical Twilight
Moon
Length of Visible Light
Length of Day
Tomorrow will be .
, % of the Moon is Illuminated

Today's Extremes

State Highs State Lows

Community

WunderPhotos

Upload Photos

1,851,307 photos uploaded!

WunderBlogs® & News

Nearby

Air Quality

  Air Quality AQ Index Pollutant
Not available.

Snow Depth

Station Depth Elevation

Earthquake Activity

City Distance Mag. Time & Date
Minimum magnitude displayed is 2.5.

Coastal Water Temperatures

Place Temperature

Stations

Nearby Weather Stations

Station Location Temp. Windchill Dew Point Humidity Wind Precip. Elev Updated Type